Time;durP1;ratioP1;P1;durP2;ratioP2;P2;SDS_P1;SDS_P2;PMS_P1;PMS_P2;Temp;Humidity;BMP_temperature;BMP_pressure;BME280_temperature;BME280_humidity;BME280_pressure;Samples;Min_cycle;Max_cycle;Signal;HPM_P1;HPM_P2
2023/04/18 00:01:37;;;;;;;;;57.50;46.50;;;;;17.10;81.21;101836.00;5064602;28;45313;-79
2023/04/18 00:04:03;;;;;;;;;63.00;51.00;;;;;16.51;84.70;101847.50;5082399;28;45400;-80
2023/04/18 00:06:30;;;;;;;;;59.25;49.25;;;;;16.43;86.31;101855.63;5082279;28;45953;-80
2023/04/18 00:08:55;;;;;;;;;63.00;50.25;;;;;16.33;86.33;101839.00;5064095;28;45458;-80
2023/04/18 00:11:20;;;;;;;;;64.25;51.50;;;;;16.24;86.62;101843.63;5082386;28;45342;-80
2023/04/18 00:13:46;;;;;;;;;66.50;51.00;;;;;16.22;87.63;101851.03;5082420;28;45372;-80
2023/04/18 00:16:12;;;;;;;;;62.50;50.00;;;;;16.11;87.46;101836.25;5082355;28;46271;-80
2023/04/18 00:18:38;;;;;;;;;61.25;49.25;;;;;16.20;88.19;101853.91;5063906;28;45345;-80
2023/04/18 00:21:05;;;;;;;;;64.50;50.75;;;;;16.21;88.27;101846.69;5082425;28;45314;-80
2023/04/18 00:23:32;;;;;;;;;65.00;51.75;;;;;16.16;87.92;101847.22;5082194;28;45270;-80
2023/04/18 00:25:57;;;;;;;;;59.50;48.25;;;;;16.70;87.03;101831.81;5082077;28;46233;-80
2023/04/18 00:28:23;;;;;;;;;61.25;49.00;;;;;16.87;85.18;101842.34;5063742;28;45712;-80
2023/04/18 00:30:48;;;;;;;;;65.75;51.50;;;;;16.40;85.74;101831.88;5082023;27;45252;-80
2023/04/18 00:33:13;;;;;;;;;66.25;52.00;;;;;16.94;85.06;101843.22;5082011;27;45379;-81
2023/04/18 00:35:39;;;;;;;;;63.25;50.50;;;;;16.95;84.84;101823.44;5081607;28;57038;-81
2023/04/18 00:38:04;;;;;;;;;64.50;52.00;;;;;17.03;84.17;101830.53;5081847;28;45296;-80
2023/04/18 00:40:29;;;;;;;;;65.00;52.50;;;;;16.37;87.05;101837.63;5080522;28;47064;-80
2023/04/18 00:42:55;;;;;;;;;63.75;52.00;;;;;16.32;87.52;101823.94;5080660;28;45890;-80
2023/04/18 00:45:20;;;;;;;;;67.00;53.00;;;;;16.32;87.84;101835.50;5080116;28;57347;-80
2023/04/18 00:47:45;;;;;;;;;65.25;53.25;;;;;16.25;88.42;101816.63;5081975;27;45321;-81
2023/04/18 00:50:11;;;;;;;;;65.00;51.75;;;;;16.27;88.45;101822.66;5081630;27;45371;-81
2023/04/18 00:52:37;;;;;;;;;69.25;54.75;;;;;16.17;88.74;101822.09;5081941;28;45316;-80
2023/04/18 00:55:06;;;;;;;;;67.50;52.75;;;;;16.14;88.60;101817.09;5081536;28;46489;-80
2023/04/18 00:57:31;;;;;;;;;69.25;55.00;;;;;16.18;88.52;101818.38;5081771;28;45220;-80
2023/04/18 00:59:59;;;;;;;;;68.75;53.50;;;;;16.20;89.01;101821.72;5081781;28;45345;-80
2023/04/18 01:02:26;;;;;;;;;70.50;55.25;;;;;16.12;88.52;101806.56;5081701;28;45469;-80
2023/04/18 01:04:51;;;;;;;;;69.00;53.50;;;;;16.13;88.77;101815.41;5063111;28;46336;-80
2023/04/18 01:07:16;;;;;;;;;68.50;54.50;;;;;16.18;88.79;101813.03;5063311;28;45681;-80
2023/04/18 01:09:43;;;;;;;;;64.25;53.00;;;;;16.12;88.38;101811.06;5081921;28;45359;-80
2023/04/18 01:12:08;;;;;;;;;67.75;55.00;;;;;16.05;88.84;101811.00;5081429;28;45469;-80
2023/04/18 01:14:33;;;;;;;;;62.00;50.75;;;;;16.65;86.18;101810.09;5081527;28;46160;-81
2023/04/18 01:17:00;;;;;;;;;68.50;55.00;;;;;16.67;85.10;101802.66;5081401;28;45249;-79
2023/04/18 01:19:25;;;;;;;;;71.00;55.25;;;;;16.73;84.99;101812.66;5081180;28;45187;-80
2023/04/18 01:21:53;;;;;;;;;66.00;53.50;;;;;16.69;85.62;101808.69;5062348;28;47105;-79
2023/04/18 01:24:18;;;;;;;;;67.25;52.25;;;;;16.05;88.07;101816.38;5080975;28;45374;-80
2023/04/18 01:26:48;;;;;;;;;69.50;56.50;;;;;15.96;89.09;101804.91;5081202;28;45309;-80
2023/04/18 01:29:14;;;;;;;;;71.00;58.50;;;;;15.91;89.46;101799.22;5081186;28;45434;-80
2023/04/18 01:31:40;;;;;;;;;68.50;54.25;;;;;15.92;88.81;101798.19;5079641;28;46042;-80
2023/04/18 01:34:05;;;;;;;;;70.00;55.25;;;;;15.86;89.35;101807.00;5081041;27;45400;-80
2023/04/18 01:36:31;;;;;;;;;74.50;60.00;;;;;15.73;89.97;101797.72;5080801;27;45267;-80
2023/04/18 01:38:59;;;;;;;;;73.25;59.00;;;;;15.74;90.21;101796.69;5081399;27;45339;-80
2023/04/18 01:41:27;;;;;;;;;73.50;57.75;;;;;15.71;89.96;101797.06;5080988;27;45442;-80
2023/04/18 01:43:53;;;;;;;;;72.00;57.00;;;;;15.71;89.92;101801.59;5080979;27;45969;-80
2023/04/18 01:46:18;;;;;;;;;67.50;55.00;;;;;15.70;89.95;101806.13;5081037;27;45191;-80
2023/04/18 01:48:43;;;;;;;;;71.75;60.75;;;;;15.88;88.99;101797.75;5079639;28;45467;-80
2023/04/18 01:51:09;;;;;;;;;73.75;58.75;;;;;15.80;89.29;101786.28;5079394;28;45961;-80
2023/04/18 01:53:34;;;;;;;;;72.00;56.25;;;;;15.62;89.33;101763.31;5080244;27;45160;-81
2023/04/18 01:55:59;;;;;;;;;70.00;55.00;;;;;15.71;89.23;101783.66;5081039;27;45249;-80
2023/04/18 01:58:25;;;;;;;;;72.75;58.50;;;;;15.68;89.22;101780.53;5081037;27;45651;-80
2023/04/18 02:00:51;;;;;;;;;73.25;57.25;;;;;15.64;89.46;101785.41;5080848;28;45488;-81
2023/04/18 02:03:17;;;;;;;;;71.25;56.75;;;;;15.53;89.16;101781.31;5079242;28;45993;-81
2023/04/18 02:05:42;;;;;;;;;76.25;63.50;;;;;15.59;89.30;101785.97;5080544;27;45369;-80
2023/04/18 02:08:10;;;;;;;;;74.25;61.50;;;;;15.56;89.23;101783.63;5079650;28;45953;-80
2023/04/18 02:10:36;;;;;;;;;73.75;60.50;;;;;15.44;90.12;101772.53;5080722;27;45585;-81
2023/04/18 02:13:01;;;;;;;;;74.75;59.75;;;;;15.45;90.28;101781.41;5078990;28;47144;-81
2023/04/18 02:15:26;;;;;;;;;69.75;55.75;;;;;15.42;89.68;101781.78;5079223;28;45626;-80
2023/04/18 02:17:52;;;;;;;;;72.25;58.75;;;;;15.44;90.04;101785.13;5079436;28;45256;-80
2023/04/18 02:20:17;;;;;;;;;75.50;62.00;;;;;15.38;89.81;101771.41;5080199;28;45248;-80
2023/04/18 02:22:43;;;;;;;;;74.25;59.00;;;;;15.64;90.14;101775.53;5080478;27;46318;-80
2023/04/18 02:25:09;;;;;;;;;75.00;62.00;;;;;15.83;89.02;101773.31;5079090;28;45508;-80
2023/04/18 02:27:35;;;;;;;;;78.25;64.00;;;;;15.93;87.71;101765.03;5080684;27;45211;-81
2023/04/18 02:30:00;;;;;;;;;73.25;58.25;;;;;16.10;86.67;101776.41;5079929;27;45499;-80
2023/04/18 02:32:25;;;;;;;;;76.25;62.75;;;;;16.08;86.18;101766.88;5080164;28;46331;-80
2023/04/18 02:34:51;;;;;;;;;74.00;61.25;;;;;16.12;85.99;101770.84;5080202;28;45220;-80
2023/04/18 02:37:16;;;;;;;;;73.50;60.50;;;;;16.08;86.09;101774.94;5061600;28;45223;-80
2023/04/18 02:39:41;;;;;;;;;71.00;56.50;;;;;16.10;86.11;101781.75;5079778;28;57764;-81
2023/04/18 02:42:07;;;;;;;;;77.25;62.00;;;;;16.10;85.96;101771.03;5061759;28;48285;-81
2023/04/18 02:44:32;;;;;;;;;76.00;61.50;;;;;16.04;85.87;101761.06;5061788;28;45346;-80
2023/04/18 02:46:57;;;;;;;;;74.00;61.00;;;;;16.12;85.59;101773.53;5080295;28;45365;-80
2023/04/18 02:49:23;;;;;;;;;73.75;61.00;;;;;16.03;85.48;101762.91;5079791;28;45441;-80
2023/04/18 02:51:48;;;;;;;;;74.75;58.25;;;;;16.03;86.16;101757.56;5079391;28;54767;-80
2023/04/18 02:54:13;;;;;;;;;68.00;54.00;;;;;16.01;86.40;101759.59;5061867;28;45335;-80
2023/04/18 02:56:39;;;;;;;;;74.00;60.25;;;;;15.90;86.25;101754.66;5080064;28;45859;-80
2023/04/18 02:59:05;;;;;;;;;76.00;64.00;;;;;15.99;86.76;101755.44;5079875;28;45406;-80
2023/04/18 03:01:31;;;;;;;;;73.50;58.50;;;;;15.96;86.38;101751.28;5061598;28;46957;-80
2023/04/18 03:03:56;;;;;;;;;76.00;63.75;;;;;15.98;87.41;101756.47;5061322;28;45353;-80
2023/04/18 03:06:21;;;;;;;;;76.00;60.75;;;;;15.92;87.15;101751.81;5078481;28;46713;-81
2023/04/18 03:08:47;;;;;;;;;74.25;63.00;;;;;15.99;87.88;101750.91;5079501;28;50912;-80
2023/04/18 03:11:12;;;;;;;;;72.25;58.00;;;;;15.95;87.95;101741.53;5079608;28;46299;-80
2023/04/18 03:13:37;;;;;;;;;73.50;62.00;;;;;15.92;87.26;101757.16;5079617;28;47172;-80
2023/04/18 03:16:03;;;;;;;;;75.75;62.25;;;;;15.96;87.65;101742.38;5079946;28;45332;-81
2023/04/18 03:18:28;;;;;;;;;74.50;60.75;;;;;15.96;87.60;101750.41;5079676;28;45384;-81
2023/04/18 03:20:54;;;;;;;;;74.00;60.25;;;;;15.97;87.64;101742.22;5079561;28;45910;-80
2023/04/18 03:23:19;;;;;;;;;75.25;63.00;;;;;15.93;87.04;101751.63;5079935;28;45170;-80
2023/04/18 03:25:44;;;;;;;;;72.00;57.75;;;;;15.94;87.12;101758.63;5079365;28;47296;-80
2023/04/18 03:28:10;;;;;;;;;73.75;59.75;;;;;15.80;87.04;101725.44;5061296;28;47243;-80
2023/04/18 03:30:35;;;;;;;;;72.00;55.75;;;;;15.94;87.10;101755.13;5076953;28;46996;-80
2023/04/18 03:33:01;;;;;;;;;75.25;62.25;;;;;15.86;87.10;101756.06;5079343;27;45146;-80
2023/04/18 03:35:27;;;;;;;;;74.50;59.25;;;;;15.88;86.79;101752.16;5079704;27;45332;-80
2023/04/18 03:37:52;;;;;;;;;73.00;60.50;;;;;15.86;86.86;101756.06;5079191;27;45254;-80
2023/04/18 03:40:17;;;;;;;;;73.75;60.50;;;;;15.80;87.14;101743.38;5079358;28;45345;-80
2023/04/18 03:42:43;;;;;;;;;77.50;65.00;;;;;15.82;86.57;101746.69;5079355;27;45369;-80
2023/04/18 03:45:08;;;;;;;;;71.50;57.25;;;;;15.80;86.50;101749.56;5061179;28;45315;-80
2023/04/18 03:47:34;;;;;;;;;75.50;61.25;;;;;15.81;86.43;101745.88;5079240;28;45352;-80
2023/04/18 03:49:59;;;;;;;;;73.25;59.00;;;;;15.76;85.98;101743.75;5079014;28;46009;-80
2023/04/18 03:52:24;;;;;;;;;73.00;57.50;;;;;15.76;85.91;101746.44;5079086;28;45388;-80
2023/04/18 03:54:50;;;;;;;;;73.75;58.25;;;;;15.68;85.38;101733.13;5079410;28;45395;-79
2023/04/18 03:57:16;;;;;;;;;77.25;61.25;;;;;15.67;85.71;101744.84;5060872;28;45518;-80
2023/04/18 03:59:41;;;;;;;;;72.50;59.75;;;;;15.60;85.70;101746.59;5079151;28;46272;-80
2023/04/18 04:02:06;;;;;;;;;70.25;56.00;;;;;15.57;86.43;101747.81;5060776;28;45353;-80
2023/04/18 04:04:32;;;;;;;;;75.75;63.00;;;;;15.49;85.71;101746.03;5060759;28;45347;-80
2023/04/18 04:06:57;;;;;;;;;76.25;61.50;;;;;15.40;86.40;101739.09;5078792;28;50689;-80
2023/04/18 04:09:22;;;;;;;;;69.25;55.50;;;;;15.30;86.15;101735.84;5078784;28;46342;-80
2023/04/18 04:11:49;;;;;;;;;72.75;59.25;;;;;15.27;86.62;101745.88;5078719;28;46823;-80
2023/04/18 04:14:14;;;;;;;;;75.75;57.50;;;;;15.22;86.88;101734.91;5079140;28;45198;-80
2023/04/18 04:16:40;;;;;;;;;72.75;58.00;;;;;15.16;87.22;101746.34;5078973;28;54835;-80
2023/04/18 04:19:05;;;;;;;;;73.75;57.75;;;;;15.12;87.43;101742.34;5063758;28;48217;-80
2023/04/18 04:21:30;;;;;;;;;71.50;56.00;;;;;15.11;87.35;101727.28;5082044;28;47881;-80
2023/04/18 04:23:56;;;;;;;;;72.00;57.75;;;;;15.20;87.66;101750.31;5082446;28;45195;-80
2023/04/18 04:26:22;;;;;;;;;78.50;65.25;;;;;15.25;88.18;101752.44;5082290;28;45336;-80
2023/04/18 04:28:52;;;;;;;;;72.50;60.25;;;;;15.22;88.01;101744.78;5081792;28;46104;-80
2023/04/18 04:31:17;;;;;;;;;76.25;65.50;;;;;15.13;87.57;101744.00;5081953;27;45406;-80
2023/04/18 04:33:43;;;;;;;;;81.25;72.50;;;;;15.15;88.26;101747.34;5082202;27;45244;-80
2023/04/18 04:36:09;;;;;;;;;82.00;69.00;;;;;15.04;88.26;101731.69;5081970;27;45516;-80
2023/04/18 04:38:37;;;;;;;;;85.50;74.50;;;;;15.06;87.98;101743.91;5081815;28;45568;-81
2023/04/18 04:41:08;;;;;;;;;100.00;93.75;;;;;15.10;87.97;101747.06;5082067;28;45547;-81
2023/04/18 04:43:34;;;;;;;;;106.25;87.75;;;;;15.06;88.39;101751.09;5082242;28;45190;-80
2023/04/18 04:46:04;;;;;;;;;83.00;72.25;;;;;14.98;89.01;101734.09;5081955;28;45237;-80
2023/04/18 04:48:29;;;;;;;;;84.00;74.50;;;;;14.93;89.18;101741.00;5081688;28;45591;-80
2023/04/18 04:50:56;;;;;;;;;80.00;68.00;;;;;14.96;89.25;101746.81;5081502;28;50039;-77
2023/04/18 04:53:23;;;;;;;;;80.75;67.50;;;;;14.94;89.21;101742.66;5081989;28;45332;-78
2023/04/18 04:55:48;;;;;;;;;88.50;79.75;;;;;14.93;88.94;101735.66;5081713;28;45259;-77
2023/04/18 04:58:14;;;;;;;;;89.75;82.25;;;;;14.97;89.24;101747.66;5063623;28;46439;-78
2023/04/18 05:00:39;;;;;;;;;118.00;100.00;;;;;14.92;89.05;101740.16;5063596;28;45296;-78
2023/04/18 05:03:05;;;;;;;;;114.00;104.75;;;;;15.01;88.68;101749.81;5081647;28;45480;-77
2023/04/18 05:05:31;;;;;;;;;85.50;74.50;;;;;14.98;88.68;101741.28;5081135;28;45369;-77
2023/04/18 05:07:56;;;;;;;;;78.50;60.25;;;;;14.86;89.18;101725.66;5081488;28;45518;-78
2023/04/18 05:10:22;;;;;;;;;78.50;63.00;;;;;14.96;89.38;101749.50;5080919;28;45278;-78
2023/04/18 05:12:48;;;;;;;;;106.50;95.25;;;;;14.94;89.70;101756.03;5080655;28;45466;-77
2023/04/18 05:15:15;;;;;;;;;82.75;72.00;;;;;14.87;89.21;101742.53;5079816;28;45307;-78
2023/04/18 05:17:40;;;;;;;;;82.75;72.50;;;;;14.96;89.62;101732.59;5080529;28;47025;-78
2023/04/18 05:20:06;;;;;;;;;114.00;99.50;;;;;14.92;89.22;101733.97;5081283;28;45318;-79
2023/04/18 05:22:31;;;;;;;;;108.25;95.75;;;;;14.98;89.59;101752.00;5081029;28;45367;-77
2023/04/18 05:24:57;;;;;;;;;115.50;97.75;;;;;14.91;89.39;101743.03;5079435;28;45455;-77
2023/04/18 05:27:22;;;;;;;;;93.00;83.00;;;;;14.92;89.15;101734.81;5062750;28;45366;-77
2023/04/18 05:29:49;;;;;;;;;80.75;70.25;;;;;14.97;88.87;101742.31;5079945;28;45178;-77
2023/04/18 05:32:14;;;;;;;;;98.75;91.50;;;;;15.00;88.98;101732.06;5062490;28;45459;-77
2023/04/18 05:34:41;;;;;;;;;157.33;134.00;;;;;14.98;89.75;101739.47;5080260;28;45286;-77
2023/04/18 05:37:06;;;;;;;;;85.25;78.50;;;;;15.05;90.02;101744.09;5080266;28;46010;-77
2023/04/18 05:39:32;;;;;;;;;79.75;67.50;;;;;15.05;89.29;101741.41;5062650;28;45809;-77
2023/04/18 05:41:57;;;;;;;;;96.50;90.50;;;;;15.10;89.56;101739.88;5078526;27;45817;-78
2023/04/18 05:44:23;;;;;;;;;127.75;110.25;;;;;15.14;89.32;101740.31;5050084;28;46650;-79
2023/04/18 05:46:50;;;;;;;;;140.75;124.75;;;;;15.11;89.23;101738.84;5067346;28;45971;-78
2023/04/18 05:49:19;;;;;;;;;100.75;91.00;;;;;15.16;89.71;101749.00;5070130;28;45502;-76
2023/04/18 05:51:45;;;;;;;;;103.00;88.75;;;;;15.21;89.38;101735.09;5063830;28;45245;-77
2023/04/18 05:54:11;;;;;;;;;102.50;88.50;;;;;15.35;89.28;101749.50;5068942;28;45358;-78
2023/04/18 05:56:36;;;;;;;;;87.25;79.50;;;;;15.37;89.08;101748.34;5070277;28;45267;-78
2023/04/18 05:59:02;;;;;;;;;131.33;122.67;;;;;15.25;89.57;101734.56;5064899;28;45316;-77
2023/04/18 06:01:27;;;;;;;;;123.75;101.50;;;;;15.20;90.21;101742.28;5061439;28;45587;-80
2023/04/18 06:03:53;;;;;;;;;100.00;85.75;;;;;15.37;90.23;101753.69;5061284;28;45409;-79
2023/04/18 06:06:19;;;;;;;;;103.50;94.75;;;;;15.44;90.20;101748.41;5075792;28;46052;-81
2023/04/18 06:08:44;;;;;;;;;120.25;108.75;;;;;15.47;89.99;101752.59;5064986;28;45366;-80
2023/04/18 06:11:09;;;;;;;;;81.75;66.75;;;;;15.39;88.89;101724.03;5060652;28;45351;-79
2023/04/18 06:13:36;;;;;;;;;74.25;62.00;;;;;15.49;89.66;101735.31;5060318;28;45376;-80
2023/04/18 06:16:01;;;;;;;;;77.25;61.00;;;;;15.58;90.00;101748.63;5060339;28;45408;-80
2023/04/18 06:18:27;;;;;;;;;83.00;74.50;;;;;15.61;90.35;101746.44;5060099;28;45312;-80
2023/04/18 06:20:53;;;;;;;;;81.50;70.25;;;;;15.64;89.81;101742.53;5064828;28;45512;-80
2023/04/18 06:23:19;;;;;;;;;109.00;99.25;;;;;15.61;90.35;101737.53;5069587;28;45368;-80
2023/04/18 06:25:44;;;;;;;;;77.25;62.00;;;;;15.71;90.20;101753.38;5069609;28;45666;-79
2023/04/18 06:28:10;;;;;;;;;83.00;72.50;;;;;15.63;89.75;101736.34;5067219;28;45250;-80
2023/04/18 06:30:35;;;;;;;;;90.25;84.25;;;;;15.64;90.55;101742.53;5079124;28;45224;-79
2023/04/18 06:33:00;;;;;;;;;77.75;62.75;;;;;15.70;90.49;101749.84;5080226;28;45283;-79
2023/04/18 06:35:29;;;;;;;;;81.50;72.00;;;;;15.75;90.78;101754.66;5061421;27;45443;-81
2023/04/18 06:37:55;;;;;;;;;74.75;61.00;;;;;15.66;90.11;101735.16;5061524;28;45378;-80
2023/04/18 06:40:20;;;;;;;;;82.00;72.25;;;;;15.80;89.85;101767.50;5060805;28;45460;-80
2023/04/18 06:42:45;;;;;;;;;81.00;70.75;;;;;15.77;90.63;101749.94;5064623;28;45285;-79
2023/04/18 06:45:11;;;;;;;;;77.75;64.25;;;;;15.84;91.00;101760.75;5060863;28;51896;-79
2023/04/18 06:47:37;;;;;;;;;78.50;65.75;;;;;15.87;91.16;101757.72;5060118;28;45269;-79
2023/04/18 06:50:04;;;;;;;;;89.75;80.25;;;;;15.86;91.28;101748.03;5060038;28;45360;-79
2023/04/18 06:52:29;;;;;;;;;83.00;77.75;;;;;15.98;92.06;101735.00;5060367;28;45304;-81
2023/04/18 06:54:54;;;;;;;;;79.50;68.75;;;;;16.12;90.86;101746.72;5060948;28;45312;-79
2023/04/18 06:57:20;;;;;;;;;79.25;71.50;;;;;16.00;90.09;101741.84;5060293;28;45240;-78
2023/04/18 06:59:45;;;;;;;;;77.50;67.00;;;;;16.03;91.20;101733.44;5060036;28;45229;-79
2023/04/18 07:02:10;;;;;;;;;80.50;68.00;;;;;16.13;91.08;101738.50;5059973;28;45450;-79
2023/04/18 07:04:35;;;;;;;;;79.25;71.00;;;;;16.27;90.63;101752.91;5060139;28;50546;-78
2023/04/18 07:07:02;;;;;;;;;95.25;89.00;;;;;16.30;90.83;101737.44;5059429;28;49385;-79
2023/04/18 07:09:28;;;;;;;;;76.00;63.50;;;;;16.42;90.52;101744.00;5062332;28;45488;-83
2023/04/18 07:11:53;;;;;;;;;77.25;64.25;;;;;16.45;90.24;101740.94;5069956;28;45467;-80
2023/04/18 07:14:23;;;;;;;;;76.75;65.50;;;;;16.51;89.63;101732.13;5066549;28;45390;-78
2023/04/18 07:16:49;;;;;;;;;77.50;67.25;;;;;16.57;89.71;101737.75;5065477;28;45383;-78
2023/04/18 07:19:15;;;;;;;;;77.50;67.00;;;;;16.03;90.20;101705.78;5060047;28;45260;-80
2023/04/18 07:21:42;;;;;;;;;71.50;58.25;;;;;16.62;90.38;101738.00;5061789;27;45292;-79
2023/04/18 07:24:08;;;;;;;;;74.25;61.75;;;;;16.69;89.27;101743.44;5059197;28;45517;-79
2023/04/18 07:26:33;;;;;;;;;76.25;64.00;;;;;16.48;90.41;101735.19;5060185;28;45390;-79
2023/04/18 07:28:58;;;;;;;;;73.75;58.25;;;;;16.59;89.19;101731.19;5065767;28;45366;-77
2023/04/18 07:31:24;;;;;;;;;75.00;60.75;;;;;16.73;88.67;101732.13;5080777;28;45538;-80
2023/04/18 07:33:50;;;;;;;;;74.50;60.50;;;;;16.42;89.55;101746.66;5069297;27;46095;-79
2023/04/18 07:36:16;;;;;;;;;72.00;57.50;;;;;16.65;89.98;101743.81;5068343;28;45493;-78
2023/04/18 07:38:41;;;;;;;;;94.00;86.00;;;;;16.67;91.61;101732.88;5059452;28;45355;-79
2023/04/18 07:41:06;;;;;;;;;76.25;64.75;;;;;16.28;92.15;101726.91;5059074;28;45394;-80
2023/04/18 07:43:32;;;;;;;;;81.25;76.00;;;;;16.37;91.96;101731.13;5061079;28;46631;-78
2023/04/18 07:45:57;;;;;;;;;73.50;63.75;;;;;16.48;92.14;101737.88;5059254;28;45345;-78
2023/04/18 07:48:24;;;;;;;;;84.25;75.75;;;;;16.50;92.63;101725.09;5059115;28;45162;-77
2023/04/18 07:50:50;;;;;;;;;74.00;60.75;;;;;16.68;91.96;101734.56;5059439;28;45481;-78
2023/04/18 07:53:16;;;;;;;;;71.75;59.75;;;;;16.72;90.74;101733.16;5064621;28;45348;-79
2023/04/18 07:55:42;;;;;;;;;77.25;64.75;;;;;17.21;89.86;101730.72;5066216;28;45225;-78
2023/04/18 07:58:08;;;;;;;;;71.50;59.00;;;;;17.41;87.71;101732.72;5066782;28;45325;-79
2023/04/18 08:00:38;;;;;;;;;70.75;60.00;;;;;17.45;87.79;101722.44;5062886;28;45524;-78
2023/04/18 08:03:04;;;;;;;;;78.50;68.50;;;;;17.69;87.85;101723.81;5062367;28;46022;-78
2023/04/18 08:05:29;;;;;;;;;69.25;54.00;;;;;17.29;86.78;101711.78;5064567;28;45239;-79
2023/04/18 08:07:55;;;;;;;;;79.25;72.50;;;;;17.22;88.56;101726.19;5063629;28;45380;-79
2023/04/18 08:10:20;;;;;;;;;74.00;59.50;;;;;17.15;88.23;101712.72;5064123;28;50216;-78
2023/04/18 08:12:45;;;;;;;;;72.75;62.50;;;;;17.20;87.41;101715.63;5063668;28;46181;-78
2023/04/18 08:15:11;;;;;;;;;119.00;107.50;;;;;17.21;88.49;101714.59;5063768;28;45312;-79
2023/04/18 08:17:37;;;;;;;;;74.50;62.75;;;;;17.81;85.98;101724.09;5062957;28;45560;-78
2023/04/18 08:20:06;;;;;;;;;77.75;70.75;;;;;17.98;84.54;101721.06;5062979;28;45485;-78
2023/04/18 08:22:31;;;;;;;;;74.50;62.00;;;;;17.81;84.21;101725.94;5063201;28;46186;-79
2023/04/18 08:24:57;;;;;;;;;73.25;63.50;;;;;17.92;83.98;101715.47;5064229;28;45337;-80
2023/04/18 08:27:22;;;;;;;;;70.00;54.50;;;;;17.49;85.26;101716.47;5066901;28;45338;-79
2023/04/18 08:29:47;;;;;;;;;78.50;69.75;;;;;17.45;85.93;101730.50;5078077;28;45376;-78
2023/04/18 08:32:13;;;;;;;;;70.00;57.75;;;;;17.30;85.16;101701.84;5088629;28;49551;-79
2023/04/18 08:34:38;;;;;;;;;67.50;54.25;;;;;17.38;85.07;101717.00;5086023;28;45266;-79
2023/04/18 08:37:03;;;;;;;;;72.25;59.00;;;;;17.45;83.98;101696.38;5083194;27;45210;-77
2023/04/18 08:39:30;;;;;;;;;68.75;55.75;;;;;17.54;84.40;101703.25;5084658;27;45453;-80
2023/04/18 08:41:59;;;;;;;;;73.50;62.25;;;;;17.66;84.92;101714.28;5083652;27;45335;-77
2023/04/18 08:44:28;;;;;;;;;68.25;56.50;;;;;18.11;83.49;101690.75;5084067;27;45330;-79
2023/04/18 08:46:54;;;;;;;;;68.25;56.00;;;;;18.41;81.30;101712.75;5083179;28;45278;-78
2023/04/18 08:49:21;;;;;;;;;68.50;56.50;;;;;18.55;81.69;101696.63;5082117;28;45301;-79
2023/04/18 08:51:48;;;;;;;;;68.75;57.50;;;;;18.78;80.99;101700.81;5081878;27;45341;-78
2023/04/18 08:54:14;;;;;;;;;68.75;57.00;;;;;18.93;79.77;101697.91;5083304;27;45397;-77
2023/04/18 08:56:39;;;;;;;;;67.00;55.50;;;;;18.98;78.34;101697.31;5084212;28;45378;-78
2023/04/18 08:59:05;;;;;;;;;67.00;54.50;;;;;18.85;78.17;101688.16;5086134;27;45593;-79
2023/04/18 09:01:56;;;;;;;;;66.25;54.00;;;;;18.98;77.42;101703.53;5083955;28;45300;-79
2023/04/18 09:04:34;;;;;;;;;61.75;51.25;;;;;18.99;77.18;101697.09;5081912;27;45232;-79
2023/04/18 09:07:01;;;;;;;;;82.25;73.25;;;;;19.05;77.43;101690.88;5083998;27;45400;-79
2023/04/18 09:09:27;;;;;;;;;65.00;52.00;;;;;19.12;76.01;101695.44;5085820;27;45253;-78
2023/04/18 09:12:06;;;;;;;;;64.75;52.00;;;;;19.21;75.36;101696.09;5083411;28;46726;-78
2023/04/18 09:14:32;;;;;;;;;106.75;94.50;;;;;19.28;74.30;101692.31;5082826;27;45389;-80
2023/04/18 09:16:59;;;;;;;;;73.75;63.50;;;;;19.36;74.66;101701.25;5087468;27;45401;-79
2023/04/18 09:19:24;;;;;;;;;70.00;56.50;;;;;19.39;73.26;101687.31;5083601;28;45425;-81
2023/04/18 09:22:01;;;;;;;;;65.25;51.50;;;;;19.42;73.21;101690.44;5084316;28;45389;-81
2023/04/18 09:24:27;;;;;;;;;64.50;51.25;;;;;19.32;73.06;101673.88;5084838;28;45271;-80
2023/04/18 09:26:55;;;;;;;;;63.50;52.00;;;;;19.38;72.19;101677.59;5085112;27;45231;-79
2023/04/18 09:29:40;;;;;;;;;62.75;51.25;;;;;19.38;71.96;101685.66;5081781;28;45418;-79
2023/04/18 09:32:05;;;;;;;;;60.50;49.75;;;;;19.47;71.27;101684.41;5064198;28;46720;-79
2023/04/18 09:34:32;;;;;;;;;60.25;49.25;;;;;19.48;71.64;101656.41;5083201;28;45165;-79
2023/04/18 09:37:11;;;;;;;;;65.25;52.25;;;;;19.63;71.14;101663.44;5083668;28;45264;-78
2023/04/18 09:39:38;;;;;;;;;61.00;48.50;;;;;19.60;69.21;101655.78;5084363;28;45314;-80
2023/04/18 09:42:04;;;;;;;;;59.75;48.50;;;;;19.77;69.43;101669.59;5064619;28;46273;-79
2023/04/18 09:44:30;;;;;;;;;64.75;52.75;;;;;19.77;70.24;101651.56;5082161;28;45178;-81
2023/04/18 09:46:55;;;;;;;;;56.50;46.75;;;;;19.88;69.02;101666.25;5083353;28;45165;-80
2023/04/18 09:49:21;;;;;;;;;66.00;53.00;;;;;19.91;69.67;101652.28;5082157;28;45160;-80
2023/04/18 09:51:52;;;;;;;;;60.00;49.00;;;;;20.18;69.37;101662.16;5083182;28;45582;-80
2023/04/18 09:54:19;;;;;;;;;60.25;47.50;;;;;20.29;68.35;101660.63;5082275;28;45279;-81
2023/04/18 09:56:49;;;;;;;;;59.25;47.50;;;;;20.38;66.78;101658.53;5081695;28;45232;-80
2023/04/18 09:59:27;;;;;;;;;58.25;46.00;;;;;20.29;65.16;101650.69;5082136;28;45315;-79
2023/04/18 10:01:55;;;;;;;;;60.00;48.75;;;;;20.34;65.37;101646.50;5083598;28;46690;-80
2023/04/18 10:04:21;;;;;;;;;57.25;46.00;;;;;20.43;64.83;101656.81;5083212;28;45441;-80
2023/04/18 10:06:46;;;;;;;;;62.25;49.25;;;;;20.44;64.26;101634.16;5082878;28;45214;-81
2023/04/18 10:09:14;;;;;;;;;57.50;45.75;;;;;20.68;63.05;101642.50;5085131;28;45182;-80
2023/04/18 10:11:40;;;;;;;;;53.50;42.75;;;;;20.81;62.35;101627.25;5083656;28;45365;-82
2023/04/18 10:14:10;;;;;;;;;57.25;46.50;;;;;20.95;61.51;101644.16;5082678;28;45319;-80
2023/04/18 10:16:36;;;;;;;;;55.00;45.00;;;;;21.00;61.23;101622.72;5080711;28;45469;-80
2023/04/18 10:19:26;;;;;;;;;57.00;45.75;;;;;21.26;61.21;101626.19;5080797;28;45366;-80
2023/04/18 10:21:54;;;;;;;;;54.00;45.75;;;;;21.30;61.32;101616.59;5052878;28;46345;-79
2023/04/18 10:24:44;;;;;;;;;52.00;43.25;;;;;21.66;60.59;101624.91;5073958;28;45284;-81
2023/04/18 10:27:09;;;;;;;;;54.50;44.00;;;;;21.79;57.40;101623.09;5061389;28;45336;-80
2023/04/18 10:29:53;;;;;;;;;50.00;42.25;;;;;21.90;56.77;101616.91;5072070;28;45373;-81
2023/04/18 10:32:23;;;;;;;;;50.25;42.00;;;;;22.04;57.84;101619.44;5083268;27;45298;-80
2023/04/18 10:34:55;;;;;;;;;50.50;42.75;;;;;22.10;55.89;101591.44;5080670;27;45419;-79
2023/04/18 10:37:20;;;;;;;;;50.25;42.00;;;;;22.44;56.36;101617.97;5079645;28;45500;-79
2023/04/18 10:39:48;;;;;;;;;55.75;44.25;;;;;22.57;55.88;101601.53;5080743;28;45472;-80
2023/04/18 10:42:13;;;;;;;;;52.50;43.75;;;;;22.71;53.81;101606.72;5080818;27;45269;-80
2023/04/18 10:44:38;;;;;;;;;53.25;44.25;;;;;22.64;54.14;101600.59;5080756;28;45198;-80
2023/04/18 10:47:07;;;;;;;;;51.50;43.50;;;;;22.63;53.74;101599.78;5080600;28;45489;-80
2023/04/18 10:49:35;;;;;;;;;53.50;45.00;;;;;22.64;54.24;101597.91;5081092;27;45299;-79
2023/04/18 10:52:02;;;;;;;;;49.75;42.00;;;;;22.61;52.69;101568.56;5070445;28;46263;-80
2023/04/18 10:54:45;;;;;;;;;50.75;42.25;;;;;22.77;51.68;101594.97;5044321;28;45412;-80
2023/04/18 10:57:12;;;;;;;;;47.00;39.33;;;;;22.69;50.60;101589.91;5060247;28;45386;-79
2023/04/18 10:59:40;;;;;;;;;49.75;41.75;;;;;22.83;51.77;101594.00;5061024;28;45335;-80
2023/04/18 11:02:28;;;;;;;;;42.33;36.00;;;;;22.98;50.62;101586.47;5062228;28;45340;-80
2023/04/18 11:04:56;;;;;;;;;50.00;41.33;;;;;23.10;49.29;101589.16;5067964;28;45348;-79
2023/04/18 11:07:35;;;;;;;;;46.67;39.33;;;;;23.21;49.77;101596.44;5068606;28;45454;-79